Time;durP1;ratioP1;P1;durP2;ratioP2;P2;SDS_P1;SDS_P2;PMS_P1;PMS_P2;Temp;Humidity;BMP_temperature;BMP_pressure;BME280_temperature;BME280_humidity;BME280_pressure;Samples;Min_cycle;Max_cycle;Signal;HPM_P1;HPM_P2
2022/06/03 00:00:22;;;;;;;;;;;;;;;24.51;31.19;99766.63;5045739;28;20342;-68
2022/06/03 00:03:11;;;;;;;;;;;;;;;24.53;31.19;99780.81;5053527;28;19917;-68
2022/06/03 00:05:55;;;;;;;;;;;;;;;24.53;31.46;99790.91;5031516;28;20020;-68
2022/06/03 00:08:23;;;;;;;;;;;;;;;24.52;31.32;99789.28;5072495;27;19915;-68
2022/06/03 00:10:57;;;;;;;;;;;;;;;24.52;31.50;99794.75;5136842;27;19922;-68
2022/06/03 00:13:28;;;;;;;;;;;;;;;24.52;31.55;99797.47;5137354;27;19916;-68
2022/06/03 00:15:54;;;;;;;;;;;;;;;24.51;31.25;99793.94;5124431;27;19919;-68
2022/06/03 00:18:25;;;;;;;;;;;;;;;24.51;31.41;99796.69;5116204;28;19985;-68
2022/06/03 00:20:58;;;;;;;;;;;;;;;24.51;31.54;99795.88;5116920;28;19920;-68
2022/06/03 00:23:38;;;;;;;;;;;;;;;24.52;31.60;99802.94;5116101;28;19915;-68
2022/06/03 00:26:22;;;;;;;;;;;;;;;24.51;31.39;99804.06;5115633;28;19982;-68
2022/06/03 00:28:59;;;;;;;;;;;;;;;24.49;31.57;99804.34;5115783;28;20401;-68
2022/06/03 00:31:27;;;;;;;;;;;;;;;24.47;31.38;99803.81;5116082;28;20002;-68
2022/06/03 00:34:10;;;;;;;;;;;;;;;24.49;31.62;99807.09;5115627;28;19916;-68
2022/06/03 00:36:54;;;;;;;;;;;;;;;24.48;31.66;99805.44;5115631;28;20368;-68
2022/06/03 00:39:28;;;;;;;;;;;;;;;24.48;31.49;99805.44;5115892;28;19915;-68
2022/06/03 00:42:05;;;;;;;;;;;;;;;24.47;31.66;99809.28;5115760;28;19916;-68
2022/06/03 00:44:43;;;;;;;;;;;;;;;24.46;31.77;99802.22;5097626;28;19916;-68
2022/06/03 00:47:27;;;;;;;;;;;;;;;24.47;31.67;99808.47;5116822;28;19916;-68
2022/06/03 00:50:11;;;;;;;;;;;;;;;24.46;31.78;99810.41;5132361;28;19923;-68
2022/06/03 00:52:39;;;;;;;;;;;;;;;24.46;31.69;99807.69;5132141;28;19922;-68
2022/06/03 00:55:23;;;;;;;;;;;;;;;24.46;31.72;99802.22;5125277;28;19923;-68
2022/06/03 00:57:54;;;;;;;;;;;;;;;24.45;31.52;99806.03;5122555;28;19943;-68
2022/06/03 01:00:24;;;;;;;;;;;;;;;24.45;31.76;99805.22;5102078;28;19923;-68
2022/06/03 01:02:57;;;;;;;;;;;;;;;24.46;31.70;99804.94;5119548;28;19915;-68
2022/06/03 01:05:24;;;;;;;;;;;;;;;24.46;31.48;99802.22;5101740;28;19916;-68
2022/06/03 01:07:53;;;;;;;;;;;;;;;24.45;31.77;99810.69;5120468;28;19915;-68
2022/06/03 01:10:18;;;;;;;;;;;;;;;24.43;31.72;99802.78;5122400;28;19922;-69
2022/06/03 01:13:06;;;;;;;;;;;;;;;24.45;31.72;99811.50;5130228;28;19915;-68
2022/06/03 01:15:34;;;;;;;;;;;;;;;24.44;31.57;99807.16;5075269;28;19923;-68
2022/06/03 01:18:15;;;;;;;;;;;;;;;24.45;31.61;99811.50;5068710;28;19959;-68
2022/06/03 01:20:43;;;;;;;;;;;;;;;24.44;31.72;99806.31;5077175;28;19970;-68
2022/06/03 01:23:17;;;;;;;;;;;;;;;24.43;31.72;99813.72;5074018;28;19944;-68
2022/06/03 01:26:01;;;;;;;;;;;;;;;24.43;31.66;99808.25;5073894;28;20006;-68
2022/06/03 01:28:35;;;;;;;;;;;;;;;24.43;31.82;99802.78;5071949;28;20397;-68
2022/06/03 01:31:03;;;;;;;;;;;;;;;24.43;31.67;99802.00;5072029;28;19920;-68
2022/06/03 01:33:37;;;;;;;;;;;;;;;24.42;31.83;99801.16;5071872;28;20018;-67
2022/06/03 01:36:21;;;;;;;;;;;;;;;24.42;31.78;99800.34;5071795;28;19924;-67
2022/06/03 01:38:59;;;;;;;;;;;;;;;24.41;31.79;99798.75;5071786;28;19916;-67
2022/06/03 01:41:31;;;;;;;;;;;;;;;24.41;31.60;99805.00;5071754;28;19951;-67
2022/06/03 01:43:59;;;;;;;;;;;;;;;24.41;31.73;99806.94;5071657;28;20375;-68
2022/06/03 01:46:28;;;;;;;;;;;;;;;24.40;31.68;99806.09;5071860;28;20374;-67
2022/06/03 01:48:56;;;;;;;;;;;;;;;24.40;31.87;99802.56;5071658;28;19944;-67
2022/06/03 01:51:31;;;;;;;;;;;;;;;24.41;31.91;99809.66;5073014;28;19916;-67
2022/06/03 01:53:59;;;;;;;;;;;;;;;24.40;31.90;99802.56;5114430;28;19916;-67
2022/06/03 01:56:30;;;;;;;;;;;;;;;24.39;31.98;99799.03;5114211;28;20455;-67
2022/06/03 01:59:02;;;;;;;;;;;;;;;24.40;31.87;99797.91;5114402;28;20009;-67
2022/06/03 02:02:03;;;;;;;;;;;;;;;24.40;31.80;99799.84;5114113;28;20063;-68
2022/06/03 02:04:35;;;;;;;;;;;;;;;24.38;32.11;99805.59;5095914;28;20370;-68
2022/06/03 02:07:10;;;;;;;;;;;;;;;24.38;31.93;99800.13;5095988;28;20251;-68
2022/06/03 02:09:47;;;;;;;;;;;;;;;24.40;31.85;99806.09;5114346;28;19916;-68
2022/06/03 02:12:21;;;;;;;;;;;;;;;24.37;31.75;99799.31;5114133;28;20007;-68
2022/06/03 02:14:46;;;;;;;;;;;;;;;24.38;32.00;99802.84;5115563;28;20070;-67
2022/06/03 02:17:30;;;;;;;;;;;;;;;24.38;32.01;99805.59;5134737;28;19945;-67
2022/06/03 02:19:55;;;;;;;;;;;;;;;24.38;32.12;99800.13;5135076;28;20130;-67
2022/06/03 02:22:29;;;;;;;;;;;;;;;24.37;31.77;99804.78;5134430;28;20345;-67
2022/06/03 02:25:03;;;;;;;;;;;;;;;24.36;32.08;99811.34;5134423;28;19931;-67
2022/06/03 02:27:29;;;;;;;;;;;;;;;24.36;32.08;99814.06;5134577;28;19915;-67
2022/06/03 02:30:25;;;;;;;;;;;;;;;24.35;32.02;99817.94;5134749;28;19975;-67
2022/06/03 02:33:09;;;;;;;;;;;;;;;24.36;32.08;99816.00;5134241;28;19919;-67
2022/06/03 02:35:42;;;;;;;;;;;;;;;24.35;32.16;99814.38;5134285;28;19957;-67
2022/06/03 02:38:13;;;;;;;;;;;;;;;24.33;32.09;99811.94;5116775;28;19919;-67
2022/06/03 02:40:47;;;;;;;;;;;;;;;24.34;32.06;99818.22;5134642;28;20019;-67
2022/06/03 02:43:12;;;;;;;;;;;;;;;24.35;32.26;99819.81;5134153;28;19986;-67
2022/06/03 02:45:37;;;;;;;;;;;;;;;24.35;32.27;99823.41;5134603;28;19919;-67
2022/06/03 02:48:21;;;;;;;;;;;;;;;24.35;32.12;99823.41;5135100;28;19915;-67
2022/06/03 02:50:52;;;;;;;;;;;;;;;24.35;32.41;99830.75;5134102;28;19942;-69
2022/06/03 02:53:29;;;;;;;;;;;;;;;24.33;32.23;99831.03;5134064;28;20334;-68
2022/06/03 02:56:14;;;;;;;;;;;;;;;24.34;32.36;99834.59;5134065;28;20373;-67
2022/06/03 02:58:43;;;;;;;;;;;;;;;24.34;32.36;99837.34;5134122;28;19923;-67
2022/06/03 03:01:26;;;;;;;;;;;;;;;24.35;32.10;99841.66;5136657;27;20397;-67
2022/06/03 03:04:10;;;;;;;;;;;;;;;24.36;32.36;99841.38;5137816;27;20425;-67
2022/06/03 03:06:36;;;;;;;;;;;;;;;24.39;32.38;99848.19;5138166;27;19950;-67
2022/06/03 03:09:07;;;;;;;;;;;;;;;24.43;32.32;99851.16;5138154;27;20269;-68
2022/06/03 03:11:38;;;;;;;;;;;;;;;24.46;32.23;99848.63;5138154;27;20003;-68
2022/06/03 03:14:22;;;;;;;;;;;;;;;24.47;32.36;99847.50;5137969;27;19922;-68
2022/06/03 03:16:47;;;;;;;;;;;;;;;24.49;32.08;99850.78;5120032;27;19939;-68
2022/06/03 03:19:12;;;;;;;;;;;;;;;24.53;32.30;99861.94;5117562;28;20354;-67
2022/06/03 03:21:53;;;;;;;;;;;;;;;24.55;32.31;99863.28;5117302;28;19916;-68
2022/06/03 03:24:21;;;;;;;;;;;;;;;24.59;31.96;99859.97;5116599;28;20392;-68
2022/06/03 03:26:48;;;;;;;;;;;;;;;24.63;32.02;99869.19;5117143;28;19950;-68
2022/06/03 03:29:32;;;;;;;;;;;;;;;24.64;32.17;99873.56;5098823;28;19920;-68
2022/06/03 03:32:02;;;;;;;;;;;;;;;24.68;32.09;99877.31;5116717;28;19942;-68
2022/06/03 03:34:31;;;;;;;;;;;;;;;24.70;31.92;99883.34;5098449;28;19916;-69
2022/06/03 03:37:03;;;;;;;;;;;;;;;24.72;31.93;99889.31;5098643;28;19916;-68
2022/06/03 03:39:43;;;;;;;;;;;;;;;24.75;32.00;99886.00;5116668;28;20386;-68
2022/06/03 03:42:14;;;;;;;;;;;;;;;24.78;31.84;99895.50;5116880;28;19923;-69
2022/06/03 03:44:58;;;;;;;;;;;;;;;24.80;32.15;99885.09;5098348;28;19963;-68
2022/06/03 03:47:30;;;;;;;;;;;;;;;24.82;31.94;99896.53;5116799;28;19939;-68
2022/06/03 03:50:14;;;;;;;;;;;;;;;24.82;31.83;99889.16;5116903;28;19959;-68
2022/06/03 03:52:55;;;;;;;;;;;;;;;24.87;31.75;99897.28;5116304;28;19941;-68
2022/06/03 03:55:32;;;;;;;;;;;;;;;24.89;31.64;99908.75;5116700;28;19922;-68
2022/06/03 03:58:12;;;;;;;;;;;;;;;24.90;31.64;99899.41;5116645;28;19915;-68
2022/06/03 04:00:56;;;;;;;;;;;;;;;24.93;31.60;99908.97;5116530;28;19919;-69
2022/06/03 04:03:27;;;;;;;;;;;;;;;24.97;31.71;99909.19;5116467;28;19943;-67
2022/06/03 04:06:11;;;;;;;;;;;;;;;24.95;31.61;99914.94;5116777;28;19916;-67
2022/06/03 04:08:45;;;;;;;;;;;;;;;24.98;31.55;99921.75;5116172;28;20377;-67
2022/06/03 04:11:28;;;;;;;;;;;;;;;25.01;31.66;99921.97;5097758;28;19923;-67
2022/06/03 04:13:54;;;;;;;;;;;;;;;25.06;31.26;99932.00;5115751;28;19923;-68
2022/06/03 04:16:22;;;;;;;;;;;;;;;25.04;31.51;99926.84;5129234;27;20322;-68
2022/06/03 04:18:53;;;;;;;;;;;;;;;25.06;31.71;99937.47;5136210;27;19915;-68
2022/06/03 04:21:19;;;;;;;;;;;;;;;25.06;31.37;99940.19;5136633;27;19916;-68
2022/06/03 04:24:03;;;;;;;;;;;;;;;25.06;31.41;99945.66;5136143;27;19942;-68
2022/06/03 04:26:37;;;;;;;;;;;;;;;25.07;31.60;99959.03;5136155;27;19919;-67
2022/06/03 04:29:34;;;;;;;;;;;;;;;25.09;31.33;99961.47;5116570;27;19939;-67
2022/06/03 04:32:15;;;;;;;;;;;;;;;25.11;31.55;99959.25;5072879;28;20019;-69
2022/06/03 04:34:59;;;;;;;;;;;;;;;25.12;31.51;99966.38;5072838;28;19917;-67
2022/06/03 04:37:32;;;;;;;;;;;;;;;25.12;31.21;99963.63;5071855;28;20213;-67
2022/06/03 04:40:00;;;;;;;;;;;;;;;25.14;31.46;99974.28;5072710;28;19917;-69
2022/06/03 04:42:25;;;;;;;;;;;;;;;25.15;31.16;99976.72;5072557;28;19920;-68
2022/06/03 04:44:50;;;;;;;;;;;;;;;25.15;31.47;99984.09;5072626;28;20003;-69
2022/06/03 04:47:36;;;;;;;;;;;;;;;25.17;31.23;99984.63;5072552;28;19948;-68
2022/06/03 04:50:16;;;;;;;;;;;;;;;25.21;31.31;99991.94;5072035;28;19974;-68
2022/06/03 04:52:50;;;;;;;;;;;;;;;25.22;31.18;100001.78;5072104;28;19943;-68
2022/06/03 04:55:34;;;;;;;;;;;;;;;25.23;31.25;100000.69;5072038;28;20390;-69
2022/06/03 04:58:05;;;;;;;;;;;;;;;25.26;31.05;100010.22;5071982;28;19966;-69
2022/06/03 05:00:30;;;;;;;;;;;;;;;25.25;31.24;100014.91;5072438;28;20282;-69
2022/06/03 05:03:14;;;;;;;;;;;;;;;25.26;31.08;100016.50;5071949;28;19920;-68
2022/06/03 05:05:42;;;;;;;;;;;;;;;25.26;31.18;100023.91;5071861;28;20393;-68
2022/06/03 05:08:07;;;;;;;;;;;;;;;25.28;31.21;100028.00;5082496;27;19915;-68
2022/06/03 05:10:35;;;;;;;;;;;;;;;25.30;31.21;100031.22;5135258;27;20227;-68
2022/06/03 05:13:19;;;;;;;;;;;;;;;25.30;31.14;100033.97;5134893;27;20383;-68
2022/06/03 05:15:44;;;;;;;;;;;;;;;25.32;31.36;100035.56;5135348;27;19916;-68
2022/06/03 05:18:28;;;;;;;;;;;;;;;25.34;31.27;100034.19;5135506;27;20352;-69
2022/06/03 05:21:05;;;;;;;;;;;;;;;25.36;31.34;100042.09;5134798;27;20370;-68
2022/06/03 05:23:40;;;;;;;;;;;;;;;25.37;31.38;100040.97;5134749;27;19915;-68
2022/06/03 05:26:08;;;;;;;;;;;;;;;25.38;31.66;100048.09;5134396;27;20014;-69
2022/06/03 05:28:36;;;;;;;;;;;;;;;25.37;31.83;100049.19;5134776;27;20023;-68
2022/06/03 05:31:11;;;;;;;;;;;;;;;25.35;31.79;100048.66;5135372;27;20262;-68
2022/06/03 05:33:38;;;;;;;;;;;;;;;25.40;31.80;100049.41;5134888;27;19927;-68
2022/06/03 05:36:22;;;;;;;;;;;;;;;25.43;31.64;100056.22;5135024;27;19915;-68
2022/06/03 05:38:50;;;;;;;;;;;;;;;25.41;31.85;100055.72;5134745;27;19938;-68
2022/06/03 05:44:19;;;;;;;;;;;;;;;25.48;31.67;100058.88;5119269;27;20000;-68
2022/06/03 05:46:58;;;;;;;;;;;;;;;25.50;32.03;100064.88;5116506;27;19961;-67
2022/06/03 05:49:29;;;;;;;;;;;;;;;25.51;31.88;100066.50;5116247;28;19915;-67
2022/06/03 05:52:01;;;;;;;;;;;;;;;25.48;32.17;100072.56;5116199;27;19915;-67
2022/06/03 05:54:26;;;;;;;;;;;;;;;25.51;32.38;100062.94;5134254;27;20333;-67
2022/06/03 05:57:10;;;;;;;;;;;;;;;25.53;32.40;100069.75;5134573;27;19916;-67
2022/06/03 05:59:47;;;;;;;;;;;;;;;25.61;32.19;100073.75;5134020;27;20072;-67
2022/06/03 06:02:18;;;;;;;;;;;;;;;25.61;32.18;100081.94;5134159;27;20310;-67
2022/06/03 06:04:46;;;;;;;;;;;;;;;25.59;32.38;100078.69;5134381;27;19972;-67
2022/06/03 06:07:17;;;;;;;;;;;;;;;25.59;32.18;100084.97;5134296;27;19926;-66
2022/06/03 06:09:43;;;;;;;;;;;;;;;25.60;32.26;100086.63;5135135;27;19923;-67
2022/06/03 06:12:27;;;;;;;;;;;;;;;25.65;32.27;100089.28;5134781;28;19916;-68
2022/06/03 06:14:55;;;;;;;;;;;;;;;25.62;32.38;100092.59;5135023;28;20026;-67
2022/06/03 06:17:30;;;;;;;;;;;;;;;25.64;32.35;100095.84;5114006;28;20285;-67
2022/06/03 06:19:57;;;;;;;;;;;;;;;25.70;32.09;100095.78;5095843;28;19927;-67
2022/06/03 06:22:33;;;;;;;;;;;;;;;25.68;32.27;100098.81;5113518;28;19920;-67
2022/06/03 06:25:01;;;;;;;;;;;;;;;25.68;32.15;100099.63;5113118;28;19965;-67
2022/06/03 06:27:35;;;;;;;;;;;;;;;25.63;32.56;100096.97;5113589;28;19977;-67
2022/06/03 06:30:00;;;;;;;;;;;;;;;25.65;32.44;100100.22;5113580;28;20342;-68
2022/06/03 06:32:26;;;;;;;;;;;;;;;25.65;32.54;100100.22;5113118;28;19973;-67
2022/06/03 06:34:57;;;;;;;;;;;;;;;25.70;32.22;100096.59;5113603;28;20006;-67
2022/06/03 06:37:46;;;;;;;;;;;;;;;25.76;32.38;100095.41;5117709;28;19946;-67
2022/06/03 06:40:27;;;;;;;;;;;;;;;25.66;32.66;100090.09;5099030;28;20023;-67
2022/06/03 06:43:01;;;;;;;;;;;;;;;25.77;32.42;100098.97;5117459;28;20011;-67
2022/06/03 06:45:36;;;;;;;;;;;;;;;25.74;32.49;100091.34;5117221;28;19935;-67
2022/06/03 06:48:10;;;;;;;;;;;;;;;25.80;32.90;100096.47;5117299;28;19939;-67
2022/06/03 06:50:50;;;;;;;;;;;;;;;25.78;32.68;100098.66;5117021;28;19920;-68
2022/06/03 06:53:22;;;;;;;;;;;;;;;25.78;32.64;100098.66;5098610;28;20377;-67
2022/06/03 06:55:54;;;;;;;;;;;;;;;25.79;32.58;100110.44;5117520;28;19916;-68
2022/06/03 06:58:42;;;;;;;;;;;;;;;25.81;32.56;100110.94;5116970;28;20401;-68
2022/06/03 07:01:08;;;;;;;;;;;;;;;25.81;32.48;100106.28;5116990;28;19916;-69
2022/06/03 07:03:42;;;;;;;;;;;;;;;25.83;32.26;100104.06;5099026;28;20003;-70
2022/06/03 07:06:33;;;;;;;;;;;;;;;25.90;31.93;100100.94;5116945;28;19998;-68
2022/06/03 07:09:11;;;;;;;;;;;;;;;25.83;32.09;100112.25;5113686;28;19947;-68
2022/06/03 07:11:50;;;;;;;;;;;;;;;25.88;31.97;100111.38;5117085;28;19923;-69
2022/06/03 07:14:20;;;;;;;;;;;;;;;25.91;32.20;100104.50;5116925;28;19926;-68
2022/06/03 07:19:47;;;;;;;;;;;;;;;25.92;32.02;100109.66;5138091;27;20006;-69
2022/06/03 07:22:27;;;;;;;;;;;;;;;25.86;32.32;100099.94;5137341;27;19943;-68
2022/06/03 07:25:11;;;;;;;;;;;;;;;25.90;32.19;100106.41;5137431;27;19925;-68
2022/06/03 07:27:42;;;;;;;;;;;;;;;25.95;32.47;100100.91;5137572;27;19951;-67
2022/06/03 07:30:09;;;;;;;;;;;;;;;25.83;32.43;100097.78;5137428;27;20021;-67
2022/06/03 07:32:54;;;;;;;;;;;;;;;25.93;32.13;100103.09;5137828;27;19927;-68
2022/06/03 07:35:22;;;;;;;;;;;;;;;26.03;32.09;100094.75;5136244;27;20354;-67
2022/06/03 07:37:47;;;;;;;;;;;;;;;26.05;32.03;100097.19;5119090;27;19915;-68
2022/06/03 07:40:17;;;;;;;;;;;;;;;26.10;31.96;100110.00;5138432;27;19915;-70
2022/06/03 07:42:54;;;;;;;;;;;;;;;26.15;31.60;100112.66;5139350;27;19927;-66
2022/06/03 07:45:20;;;;;;;;;;;;;;;26.00;32.16;100106.28;5119207;27;19923;-66
2022/06/03 07:47:45;;;;;;;;;;;;;;;26.14;31.77;100102.81;5141820;27;19919;-67
2022/06/03 07:50:15;;;;;;;;;;;;;;;26.19;31.79;100113.69;5137037;27;20226;-67
2022/06/03 07:52:49;;;;;;;;;;;;;;;26.28;31.37;100113.81;5137912;27;19922;-68
2022/06/03 07:55:16;;;;;;;;;;;;;;;26.16;31.61;100120.56;5137623;27;19916;-67
2022/06/03 07:57:42;;;;;;;;;;;;;;;26.13;31.62;100114.84;5137169;27;19960;-69
2022/06/03 08:00:11;;;;;;;;;;;;;;;26.18;31.60;100120.25;5119000;27;19915;-67
2022/06/03 08:02:37;;;;;;;;;;;;;;;26.18;31.99;100123.00;5136150;27;19969;-67
2022/06/03 08:05:28;;;;;;;;;;;;;;;26.23;31.54;100123.75;5137742;27;19915;-67
2022/06/03 08:10:57;;;;;;;;;;;;;;;26.16;31.49;100134.25;5121190;27;19922;-69
2022/06/03 08:13:42;;;;;;;;;;;;;;;26.32;31.13;100136.75;5136493;27;20377;-68
2022/06/03 08:16:12;;;;;;;;;;;;;;;26.38;31.11;100141.84;5129434;27;19916;-68
2022/06/03 08:18:40;;;;;;;;;;;;;;;26.40;31.05;100142.34;5097297;28;19916;-68
2022/06/03 08:21:26;;;;;;;;;;;;;;;26.45;30.99;100143.38;5115666;28;19962;-68
2022/06/03 08:23:52;;;;;;;;;;;;;;;26.40;31.07;100147.81;5115172;28;19923;-68
2022/06/03 08:26:17;;;;;;;;;;;;;;;26.36;31.06;100144.06;5096788;28;20327;-68
2022/06/03 08:28:43;;;;;;;;;;;;;;;26.37;31.08;100148.44;5115449;28;19923;-68
2022/06/03 08:31:09;;;;;;;;;;;;;;;26.41;30.98;100143.19;5096927;28;19920;-68
2022/06/03 08:33:38;;;;;;;;;;;;;;;26.35;31.03;100139.69;5097198;28;19927;-68
2022/06/03 08:36:04;;;;;;;;;;;;;;;26.41;30.85;100149.47;5115596;28;19922;-67
2022/06/03 08:38:31;;;;;;;;;;;;;;;26.43;30.97;100144.50;5114967;28;20002;-67
2022/06/03 08:41:11;;;;;;;;;;;;;;;26.43;30.86;100157.38;5096681;28;20441;-68
2022/06/03 08:43:39;;;;;;;;;;;;;;;26.43;31.07;100151.91;5115136;28;20366;-68
2022/06/03 08:46:08;;;;;;;;;;;;;;;26.35;30.93;100152.59;5115792;28;20302;-68
2022/06/03 08:48:35;;;;;;;;;;;;;;;26.35;31.16;100161.59;5115926;28;19916;-67
2022/06/03 08:51:01;;;;;;;;;;;;;;;26.24;31.57;100149.19;5115139;28;19916;-67
2022/06/03 08:53:36;;;;;;;;;;;;;;;26.33;31.29;100158.34;5096753;28;19916;-68
2022/06/03 08:56:05;;;;;;;;;;;;;;;26.33;31.09;100158.34;5096361;28;19915;-68
2022/06/03 08:58:39;;;;;;;;;;;;;;;26.41;31.08;100149.47;5113851;28;19923;-67
2022/06/03 09:01:17;;;;;;;;;;;;;;;26.41;30.98;100154.94;5116346;28;19926;-67
2022/06/03 09:03:45;;;;;;;;;;;;;;;26.41;31.07;100167.84;5115540;28;20381;-68
2022/06/03 09:06:11;;;;;;;;;;;;;;;26.39;31.11;100176.34;5114913;28;20455;-68
2022/06/03 09:08:38;;;;;;;;;;;;;;;26.36;30.94;100173.41;5114755;28;20010;-67
2022/06/03 09:11:07;;;;;;;;;;;;;;;26.47;31.17;100185.00;5114745;28;19916;-67
2022/06/03 09:13:33;;;;;;;;;;;;;;;26.42;31.07;100172.19;5114292;28;19920;-67
2022/06/03 09:15:58;;;;;;;;;;;;;;;26.47;31.04;100174.84;5118659;27;20323;-67
2022/06/03 09:18:29;;;;;;;;;;;;;;;26.46;31.02;100186.09;5116861;27;19916;-68
2022/06/03 09:20:55;;;;;;;;;;;;;;;26.43;30.99;100173.81;5135132;27;20007;-67
2022/06/03 09:23:21;;;;;;;;;;;;;;;26.50;31.00;100178.91;5135176;27;19919;-68
2022/06/03 09:25:50;;;;;;;;;;;;;;;26.51;30.74;100175.88;5134854;27;19926;-69
2022/06/03 09:28:28;;;;;;;;;;;;;;;26.46;31.13;100177.88;5117483;27;19919;-68
2022/06/03 09:30:53;;;;;;;;;;;;;;;26.50;30.71;100185.22;5135449;27;19926;-68
2022/06/03 09:33:19;;;;;;;;;;;;;;;26.48;30.87;100184.69;5134607;27;20013;-68
2022/06/03 09:35:45;;;;;;;;;;;;;;;26.44;30.93;100186.41;5135024;27;20377;-68
2022/06/03 09:38:10;;;;;;;;;;;;;;;26.44;30.67;100197.38;5134753;27;19951;-68
2022/06/03 09:40:36;;;;;;;;;;;;;;;26.47;30.66;100188.53;5134915;27;19919;-68
2022/06/03 09:43:04;;;;;;;;;;;;;;;26.52;30.66;100190.41;5134736;27;20059;-68
2022/06/03 09:45:30;;;;;;;;;;;;;;;26.50;30.78;100195.38;5136060;27;19923;-68
2022/06/03 09:47:55;;;;;;;;;;;;;;;26.45;30.71;100209.94;5134951;27;20360;-68
2022/06/03 09:50:21;;;;;;;;;;;;;;;26.46;30.75;100205.28;5134198;27;19938;-67
2022/06/03 09:52:48;;;;;;;;;;;;;;;26.43;30.84;100195.75;5115805;27;19920;-67
2022/06/03 09:55:46;;;;;;;;;;;;;;;26.29;30.85;100206.66;5116103;27;19916;-67
2022/06/03 09:58:12;;;;;;;;;;;;;;;26.50;30.36;100187.16;5070983;28;19924;-67
2022/06/03 10:00:41;;;;;;;;;;;;;;;26.49;30.25;100191.81;5070987;28;19924;-68
2022/06/03 10:03:06;;;;;;;;;;;;;;;26.47;30.38;100185.00;5070983;28;19917;-68
2022/06/03 10:05:32;;;;;;;;;;;;;;;26.50;30.41;100195.38;5070885;28;20428;-68
2022/06/03 10:08:00;;;;;;;;;;;;;;;26.51;30.36;100188.75;5071026;28;20305;-67
2022/06/03 10:13:10;;;;;;;;;;;;;;;26.49;30.38;100188.25;5070716;28;19955;-67
2022/06/03 10:15:42;;;;;;;;;;;;;;;26.45;30.31;100199.00;5070921;28;19917;-68
2022/06/03 10:18:07;;;;;;;;;;;;;;;26.48;30.49;100186.63;5030696;28;19924;-68
2022/06/03 10:20:33;;;;;;;;;;;;;;;26.49;30.37;100196.47;5030846;28;19966;-67
2022/06/03 10:22:59;;;;;;;;;;;;;;;26.35;30.38;100199.16;5030750;28;19951;-67
2022/06/03 10:25:27;;;;;;;;;;;;;;;26.39;30.56;100201.00;5030802;28;19975;-68
2022/06/03 10:27:52;;;;;;;;;;;;;;;26.43;30.59;100193.00;5030896;28;19976;-68
2022/06/03 10:30:24;;;;;;;;;;;;;;;26.45;30.58;100193.50;5030675;28;19968;-68
2022/06/03 10:32:50;;;;;;;;;;;;;;;26.49;30.39;100199.22;5037872;28;19921;-68
2022/06/03 10:35:16;;;;;;;;;;;;;;;26.51;30.41;100202.44;5092974;28;19920;-67
2022/06/03 10:37:48;;;;;;;;;;;;;;;26.57;30.34;100209.50;5093080;28;20008;-68
2022/06/03 10:40:14;;;;;;;;;;;;;;;26.59;30.25;100207.25;5093163;28;19992;-67
2022/06/03 10:42:40;;;;;;;;;;;;;;;26.54;30.17;100207.34;5093093;28;19965;-67
2022/06/03 10:45:06;;;;;;;;;;;;;;;26.55;30.34;100204.31;5092725;28;19920;-67
2022/06/03 10:47:33;;;;;;;;;;;;;;;26.60;30.05;100220.66;5074731;28;19916;-67
2022/06/03 10:49:59;;;;;;;;;;;;;;;26.56;30.23;100211.44;5093082;28;19916;-68
2022/06/03 11:03:31;;;;;;;;;;;;;;;26.49;30.24;100205.53;5093139;28;19969;-67
2022/06/03 11:05:57;;;;;;;;;;;;;;;26.47;30.26;100206.91;5092949;28;20002;-67
2022/06/03 11:08:22;;;;;;;;;;;;;;;26.49;30.08;100221.13;5092991;28;19916;-67
2022/06/03 11:10:49;;;;;;;;;;;;;;;26.50;30.12;100218.09;5092991;28;20016;-68
2022/06/03 11:13:24;;;;;;;;;;;;;;;26.49;29.96;100210.16;5092877;28;19916;-68
2022/06/03 11:15:50;;;;;;;;;;;;;;;26.46;29.96;100216.22;5092732;28;20362;-67
2022/06/03 11:18:16;;;;;;;;;;;;;;;26.47;29.90;100215.13;5133579;28;19919;-67
2022/06/03 11:20:41;;;;;;;;;;;;;;;26.45;29.91;100214.63;5133842;27;19915;-67
2022/06/03 11:23:08;;;;;;;;;;;;;;;26.47;29.79;100221.41;5137295;27;19919;-67
2022/06/03 11:25:34;;;;;;;;;;;;;;;26.50;30.00;100225.50;5113473;27;20014;-67
2022/06/03 11:28:11;;;;;;;;;;;;;;;26.45;30.23;100209.16;5096549;28;19916;-67
2022/06/03 11:30:48;;;;;;;;;;;;;;;26.48;30.12;100214.03;5096541;28;19920;-67
2022/06/03 11:33:24;;;;;;;;;;;;;;;26.51;29.79;100213.41;5096193;28;19943;-67
2022/06/03 11:36:03;;;;;;;;;;;;;;;26.51;30.14;100205.19;5096178;28;20330;-67
2022/06/03 11:38:32;;;;;;;;;;;;;;;26.51;30.04;100213.41;5078494;28;19960;-67
2022/06/03 11:41:01;;;;;;;;;;;;;;;26.48;30.13;100219.50;5078419;28;19981;-67
2022/06/03 11:43:39;;;;;;;;;;;;;;;26.45;30.04;100214.63;5078117;28;19916;-68
2022/06/03 11:46:05;;;;;;;;;;;;;;;26.43;30.25;100215.72;5078363;28;19920;-67
2022/06/03 11:48:32;;;;;;;;;;;;;;;26.39;30.49;100211.97;5078074;28;19924;-67
2022/06/03 11:50:58;;;;;;;;;;;;;;;26.46;30.06;100216.22;5096588;28;19916;-67
2022/06/03 11:53:25;;;;;;;;;;;;;;;26.41;30.67;100212.47;5096430;28;19916;-68
2022/06/03 11:55:50;;;;;;;;;;;;;;;26.49;30.33;100205.53;5078157;28;19916;-67
2022/06/03 11:58:17;;;;;;;;;;;;;;;26.46;30.46;100208.00;5096477;28;19976;-68
2022/06/03 12:00:47;;;;;;;;;;;;;;;26.48;30.54;100192.91;5096814;28;19923;-67
2022/06/03 12:03:20;;;;;;;;;;;;;;;26.49;30.38;100199.22;5096258;28;19923;-67
2022/06/03 12:05:48;;;;;;;;;;;;;;;26.51;30.49;100206.03;5078317;28;19927;-68
2022/06/03 12:08:26;;;;;;;;;;;;;;;26.49;30.57;100207.44;5096834;28;20003;-67
2022/06/03 12:10:51;;;;;;;;;;;;;;;26.46;30.62;100206.13;5096221;28;20023;-67
2022/06/03 12:13:26;;;;;;;;;;;;;;;26.42;30.57;100205.91;5096156;28;20289;-67
2022/06/03 12:15:55;;;;;;;;;;;;;;;26.50;30.93;100206.31;5096553;28;19923;-68
2022/06/03 12:18:32;;;;;;;;;;;;;;;26.45;30.50;100209.16;5078182;28;19962;-68
2022/06/03 12:21:00;;;;;;;;;;;;;;;26.43;30.65;100202.03;5075927;28;19926;-68
2022/06/03 12:23:25;;;;;;;;;;;;;;;26.36;31.12;100207.06;5075533;28;19947;-68
2022/06/03 12:25:54;;;;;;;;;;;;;;;26.37;30.92;100200.50;5089378;28;20290;-68
2022/06/03 12:28:20;;;;;;;;;;;;;;;26.41;30.79;100204.25;5095612;28;19922;-68
2022/06/03 12:30:50;;;;;;;;;;;;;;;26.41;30.94;100198.78;5095383;28;20006;-68
2022/06/03 12:33:28;;;;;;;;;;;;;;;26.44;30.83;100205.59;5094113;28;20366;-68
2022/06/03 12:36:01;;;;;;;;;;;;;;;26.42;30.99;100203.16;5094765;28;19917;-68
2022/06/03 12:38:27;;;;;;;;;;;;;;;26.46;31.31;100202.53;5095604;28;19950;-69
2022/06/03 12:40:53;;;;;;;;;;;;;;;26.41;31.03;100209.75;5095259;28;19916;-68
2022/06/03 12:43:31;;;;;;;;;;;;;;;26.42;31.08;100211.38;5095012;28;19916;-68
2022/06/03 12:46:01;;;;;;;;;;;;;;;26.41;31.08;100212.47;5095115;28;19916;-68
2022/06/03 12:48:51;;;;;;;;;;;;;;;26.39;30.89;100211.97;5095167;28;19951;-70
2022/06/03 12:51:29;;;;;;;;;;;;;;;26.41;30.77;100201.50;5085193;28;20378;-69
2022/06/03 12:53:58;;;;;;;;;;;;;;;26.38;30.89;100199.38;5095000;28;19916;-69
2022/06/03 12:56:23;;;;;;;;;;;;;;;26.25;31.00;100208.38;5094909;28;19920;-68
2022/06/03 12:58:59;;;;;;;;;;;;;;;26.35;30.77;100202.69;5095025;28;20005;-69
2022/06/03 13:01:30;;;;;;;;;;;;;;;26.34;30.50;100206.56;5076990;28;20007;-68
2022/06/03 13:03:57;;;;;;;;;;;;;;;26.33;30.55;100207.66;5095074;28;20034;-69
2022/06/03 13:06:26;;;;;;;;;;;;;;;26.34;30.45;100213.97;5076699;28;20011;-68
2022/06/03 13:11:42;;;;;;;;;;;;;;;26.36;30.49;100209.81;5094730;28;19982;-69
2022/06/03 13:14:18;;;;;;;;;;;;;;;26.35;30.41;100208.19;5094745;28;20011;-70
2022/06/03 13:16:44;;;;;;;;;;;;;;;26.25;30.70;100200.16;5089065;28;20004;-69
2022/06/03 13:19:17;;;;;;;;;;;;;;;26.27;30.57;100206.13;5056830;28;20359;-69
2022/06/03 13:21:51;;;;;;;;;;;;;;;26.34;30.66;100209.31;5074387;28;19923;-69
2022/06/03 13:24:24;;;;;;;;;;;;;;;26.31;30.41;100201.69;5075502;28;20008;-68
2022/06/03 13:26:50;;;;;;;;;;;;;;;26.19;30.63;100195.84;5094260;28;20003;-69
2022/06/03 13:29:35;;;;;;;;;;;;;;;26.27;30.61;100200.66;5076025;28;19920;-68
2022/06/03 13:32:01;;;;;;;;;;;;;;;26.33;30.67;100195.91;5094411;28;20018;-68